createdAt,value
2023-02-19T00:01:22.304Z,10.10
2023-02-19T00:06:29.099Z,8.32
2023-02-19T00:11:33.850Z,7.90
2023-02-19T00:16:39.881Z,7.32
2023-02-19T00:21:44.680Z,9.65
2023-02-19T00:26:49.148Z,8.77
2023-02-19T00:31:52.545Z,8.55
2023-02-19T00:36:57.392Z,9.65
2023-02-19T00:42:01.160Z,8.45
2023-02-19T00:47:04.322Z,9.23
2023-02-19T00:52:08.951Z,9.27
2023-02-19T00:57:12.197Z,10.63
2023-02-19T01:02:15.366Z,11.50
2023-02-19T01:07:20.586Z,10.13
2023-02-19T01:12:25.834Z,11.65
2023-02-19T01:17:29.275Z,11.30
2023-02-19T01:22:33.978Z,9.88
2023-02-19T01:27:37.281Z,11.20
2023-02-19T01:32:40.631Z,12.30
2023-02-19T01:37:45.292Z,10.85
2023-02-19T01:42:50.293Z,10.95
2023-02-19T01:48:10.283Z,9.75
2023-02-19T01:53:18.702Z,10.30
2023-02-19T01:58:22.090Z,10.52
2023-02-19T02:03:26.265Z,9.73
2023-02-19T02:08:50.463Z,11.10
2023-02-19T02:13:56.261Z,9.57
2023-02-19T02:19:07.219Z,9.65
2023-02-19T02:24:29.985Z,10.65
2023-02-19T02:30:07.315Z,9.50
2023-02-19T02:35:19.351Z,9.15
2023-02-19T02:40:22.971Z,6.03
2023-02-19T02:45:38.157Z,8.82
2023-02-19T02:50:45.629Z,7.05
2023-02-19T02:55:53.322Z,7.70
2023-02-19T03:01:18.126Z,8.68
2023-02-19T03:06:25.457Z,8.15
2023-02-19T03:11:49.667Z,8.68
2023-02-19T03:17:18.466Z,9.32
2023-02-19T03:22:26.737Z,7.65
2023-02-19T03:27:33.537Z,7.20
2023-02-19T03:32:41.547Z,8.07
2023-02-19T03:37:48.374Z,8.38
2023-02-19T03:42:57.957Z,6.97
2023-02-19T03:48:14.985Z,8.52
2023-02-19T03:53:28.937Z,7.50
2023-02-19T03:58:36.313Z,7.88
2023-02-19T04:03:44.291Z,10.15
2023-02-19T04:08:52.026Z,8.80
2023-02-19T04:13:59.892Z,8.82
2023-02-19T04:19:09.111Z,9.15
2023-02-19T04:24:15.697Z,8.52
2023-02-19T04:29:18.952Z,8.20
2023-02-19T04:34:23.585Z,9.60
2023-02-19T04:39:26.998Z,6.70
2023-02-19T04:44:30.272Z,7.25
2023-02-19T04:49:35.275Z,7.38
2023-02-19T04:54:38.731Z,9.43
2023-02-19T04:59:42.071Z,8.70
2023-02-19T05:04:46.687Z,7.75
2023-02-19T05:09:49.943Z,8.13
2023-02-19T05:14:53.365Z,7.20
2023-02-19T05:19:57.960Z,8.70
2023-02-19T05:25:01.168Z,7.22
2023-02-19T05:30:04.635Z,8.50
2023-02-19T05:35:09.934Z,8.30
2023-02-19T05:40:13.410Z,7.35
2023-02-19T05:45:16.741Z,8.68
2023-02-19T05:50:21.339Z,8.57
2023-02-19T05:55:24.438Z,7.63
2023-02-19T06:00:27.979Z,6.85
2023-02-19T06:05:32.697Z,6.60
2023-02-19T06:10:37.387Z,7.28
2023-02-19T06:15:41.165Z,6.28
2023-02-19T06:20:46.019Z,6.82
2023-02-19T06:25:49.389Z,7.63
2023-02-19T06:30:52.834Z,7.18
2023-02-19T06:36:00.400Z,7.72
2023-02-19T06:41:04.512Z,8.13
2023-02-19T06:46:09.424Z,6.93
2023-02-19T06:51:15.922Z,7.03
2023-02-19T06:56:25.846Z,6.97
2023-02-19T07:01:30.686Z,8.40
2023-02-19T07:06:36.146Z,7.68
2023-02-19T07:11:41.042Z,7.20
2023-02-19T07:16:44.786Z,6.25
2023-02-19T07:21:49.529Z,7.72
2023-02-19T07:26:52.844Z,7.22
2023-02-19T07:31:56.201Z,6.95
2023-02-19T07:37:00.783Z,7.72
2023-02-19T07:42:04.153Z,8.93
2023-02-19T07:47:07.360Z,7.40
2023-02-19T07:52:12.010Z,7.38
2023-02-19T07:57:15.167Z,5.53
2023-02-19T08:06:33.309Z,6.38
2023-02-19T08:11:54.590Z,6.97
2023-02-19T08:16:58.135Z,7.22
2023-02-19T08:22:02.832Z,8.05
2023-02-19T08:27:06.040Z,8.68
2023-02-19T08:32:09.429Z,6.47
2023-02-19T08:37:14.490Z,7.13
2023-02-19T08:42:17.912Z,9.20
2023-02-19T08:47:21.178Z,7.60
2023-02-19T08:52:25.985Z,6.75
2023-02-19T08:57:29.705Z,8.13
2023-02-19T09:02:32.935Z,8.85
2023-02-19T09:07:37.573Z,6.80
2023-02-19T09:12:41.511Z,8.60
2023-02-19T09:17:45.026Z,8.15
2023-02-19T09:22:49.743Z,8.00
2023-02-19T09:27:56.309Z,9.93
2023-02-19T09:32:59.512Z,8.27
2023-02-19T09:38:04.167Z,6.45
2023-02-19T09:43:09.103Z,8.43
2023-02-19T09:48:13.982Z,8.02
2023-02-19T09:53:23.045Z,8.23
2023-02-19T09:58:30.267Z,6.97
2023-02-19T10:03:39.315Z,8.15
2023-02-19T10:08:46.870Z,8.70
2023-02-19T10:13:54.553Z,7.78
2023-02-19T10:18:58.306Z,7.88
2023-02-19T10:24:05.846Z,7.78
2023-02-19T10:29:10.880Z,7.63
2023-02-19T10:34:22.291Z,7.90
2023-02-19T10:39:42.359Z,7.75
2023-02-19T10:44:47.740Z,7.53
2023-02-19T10:49:52.534Z,8.10
2023-02-19T10:55:14.817Z,8.55
2023-02-19T11:00:24.377Z,7.95
2023-02-19T11:05:27.845Z,7.38
2023-02-19T11:10:38.685Z,8.25
2023-02-19T11:15:42.692Z,8.82
2023-02-19T11:20:51.243Z,8.73
2023-02-19T11:25:57.795Z,8.23
2023-02-19T11:31:32.443Z,9.07
2023-02-19T11:36:37.263Z,8.90
2023-02-19T11:42:16.561Z,7.53
2023-02-19T11:47:49.590Z,8.43
2023-02-19T11:53:05.661Z,9.20
2023-02-19T11:58:34.364Z,10.05
2023-02-19T12:03:57.053Z,7.80
2023-02-19T12:09:34.690Z,7.70
2023-02-19T12:14:58.275Z,9.07
2023-02-19T12:25:42.043Z,8.27
2023-02-19T12:31:04.082Z,13.18
2023-02-19T12:36:18.968Z,9.15
2023-02-19T12:41:33.937Z,8.95
2023-02-19T12:46:41.069Z,9.20
2023-02-19T12:51:49.004Z,9.43
2023-02-19T12:56:59.289Z,8.90
2023-02-19T13:02:15.066Z,9.63
2023-02-19T13:07:22.488Z,9.20
2023-02-19T13:12:30.405Z,8.10
2023-02-19T13:17:41.471Z,9.68
2023-02-19T13:23:05.447Z,9.18
2023-02-19T13:28:27.136Z,10.02
2023-02-19T13:33:45.196Z,9.02
2023-02-19T13:38:50.385Z,10.13
2023-02-19T13:44:01.853Z,10.30
2023-02-19T13:49:41.228Z,11.68
2023-02-19T13:54:44.505Z,12.63
2023-02-19T13:59:48.444Z,11.35
2023-02-19T14:04:56.102Z,9.90
2023-02-19T14:10:01.886Z,11.02
2023-02-19T14:15:51.388Z,10.25
2023-02-19T14:21:09.083Z,9.38
2023-02-19T14:26:13.002Z,10.02
2023-02-19T14:31:31.417Z,10.38
2023-02-19T14:36:49.002Z,9.73
2023-02-19T14:41:54.331Z,10.10
2023-02-19T14:47:01.977Z,10.30
2023-02-19T14:52:12.171Z,10.07
2023-02-19T14:57:20.041Z,10.13
2023-02-19T15:02:26.061Z,10.10
2023-02-19T15:07:34.721Z,9.30
2023-02-19T15:12:47.244Z,11.85
2023-02-19T15:17:52.542Z,9.90
2023-02-19T15:22:59.747Z,9.93
2023-02-19T15:28:21.421Z,9.65
2023-02-19T15:33:24.911Z,11.48
2023-02-19T15:38:30.083Z,11.27
2023-02-19T15:43:41.873Z,10.48
2023-02-19T15:48:50.406Z,11.18
2023-02-19T15:54:03.360Z,11.30
2023-02-19T15:59:14.775Z,9.23
2023-02-19T16:04:19.841Z,10.85
2023-02-19T16:09:29.164Z,10.35
2023-02-19T16:14:34.043Z,9.57
2023-02-19T16:19:47.665Z,11.35
2023-02-19T16:24:56.357Z,10.65
2023-02-19T16:30:00.503Z,12.07
2023-02-19T16:35:03.802Z,11.45
2023-02-19T16:40:41.003Z,11.07
2023-02-19T16:45:47.434Z,10.20
2023-02-19T16:50:51.352Z,11.68
2023-02-19T16:55:54.762Z,12.60
2023-02-19T17:00:59.702Z,10.95
2023-02-19T17:06:03.124Z,11.02
2023-02-19T17:11:09.136Z,11.60
2023-02-19T17:16:19.978Z,11.90
2023-02-19T17:21:25.221Z,10.48
2023-02-19T17:26:31.283Z,12.25
2023-02-19T17:31:36.376Z,12.65
2023-02-19T17:36:40.602Z,12.40
2023-02-19T17:41:44.651Z,11.00
2023-02-19T17:46:49.734Z,10.77
2023-02-19T17:51:52.939Z,13.25
2023-02-19T17:56:56.566Z,13.23
2023-02-19T18:02:03.306Z,14.60
2023-02-19T18:07:06.477Z,13.88
2023-02-19T18:12:10.477Z,12.40
2023-02-19T18:17:16.382Z,12.00
2023-02-19T18:22:19.805Z,11.93
2023-02-19T18:27:23.715Z,11.38
2023-02-19T18:32:29.061Z,13.10
2023-02-19T18:37:34.012Z,12.35
2023-02-19T18:42:37.557Z,11.27
2023-02-19T18:47:42.533Z,11.52
2023-02-19T18:52:47.178Z,12.88
2023-02-19T18:57:50.753Z,13.45
2023-02-19T19:02:59.616Z,12.98
2023-02-19T19:08:02.878Z,12.05
2023-02-19T19:13:06.728Z,12.18
2023-02-19T19:18:11.638Z,12.90
2023-02-19T19:23:15.220Z,11.75
2023-02-19T19:28:18.632Z,11.38
2023-02-19T19:33:23.405Z,12.90
2023-02-19T19:38:26.909Z,12.32
2023-02-19T19:43:31.264Z,12.55
2023-02-19T19:48:36.222Z,12.10
2023-02-19T19:53:39.563Z,14.35
2023-02-19T19:58:43.034Z,12.38
2023-02-19T20:03:47.718Z,13.27
2023-02-19T20:08:50.959Z,12.43
2023-02-19T20:13:54.200Z,11.85
2023-02-19T20:18:59.044Z,12.25
2023-02-19T20:24:03.166Z,11.60
2023-02-19T20:29:07.239Z,13.77
2023-02-19T20:34:11.944Z,11.63
2023-02-19T20:39:16.424Z,12.70
2023-02-19T20:44:20.763Z,11.68
2023-02-19T20:49:27.500Z,12.48
2023-02-19T20:54:33.237Z,12.52
2023-02-19T20:59:38.687Z,13.13
2023-02-19T21:04:44.071Z,12.73
2023-02-19T21:09:47.452Z,12.07
2023-02-19T21:14:50.875Z,12.43
2023-02-19T21:19:55.673Z,12.80
2023-02-19T21:24:59.110Z,13.30
2023-02-19T21:30:02.477Z,13.10
2023-02-19T21:35:09.120Z,13.52
2023-02-19T21:40:13.860Z,14.70
2023-02-19T21:45:17.590Z,13.15
2023-02-19T21:50:22.717Z,12.13
2023-02-19T21:55:25.944Z,13.75
2023-02-19T22:00:29.232Z,12.57
2023-02-19T22:05:34.140Z,12.30
2023-02-19T22:10:39.431Z,12.35
2023-02-19T22:15:42.804Z,12.35
2023-02-19T22:20:47.740Z,12.20
2023-02-19T22:25:51.400Z,12.88
2023-02-19T22:30:54.816Z,12.50
2023-02-19T22:35:59.609Z,12.73
2023-02-19T22:41:04.172Z,13.35
2023-02-19T22:46:11.752Z,14.30
2023-02-19T22:51:17.994Z,13.27
2023-02-19T22:56:23.095Z,13.73
2023-02-19T23:01:26.688Z,12.40
2023-02-19T23:06:33.468Z,13.27
2023-02-19T23:11:39.320Z,12.63
2023-02-19T23:16:42.798Z,12.98
2023-02-19T23:21:47.437Z,12.32
2023-02-19T23:26:52.880Z,14.23
2023-02-19T23:31:56.530Z,12.93
2023-02-19T23:37:02.448Z,14.25
2023-02-19T23:42:05.744Z,13.60
2023-02-19T23:47:08.938Z,16.08
2023-02-19T23:52:13.491Z,16.98
2023-02-19T23:57:16.949Z,13.90
